Terminal Aerodrome Forecast
Issued by NWS

Home | Current Version | Previous Version | Text Only | Print | Product List | Glossary On
Versions: 1 2 3 4 5 6 7 8 9 10 11 12 13 14 15 16 17 18 19 20 21 22 23 24 25 26 27 28 29 30
000
FTUS42 KFFC 260530
TAFPDK
TAF
KPDK 260530Z 2606/2706 20005KT P6SM VCSH BKN070
     FM260800 23009KT P6SM VCSH BKN025
     FM261100 24011KT P6SM BKN012
     FM261400 31019G29KT P6SM SCT025
     FM261900 32021G30KT P6SM SCT200
     FM270000 30012G20KT P6SM SKC=

USA.gov is the U.S. government's official web portal to all federal, state and local government web resources and services.